Time;durP1;ratioP1;P1;durP2;ratioP2;P2;SDS_P1;SDS_P2;PMS_P1;PMS_P2;Temp;Humidity;BMP_temperature;BMP_pressure;BME280_temperature;BME280_humidity;BME280_pressure;Samples;Min_cycle;Max_cycle;Signal;HPM_P1;HPM_P2
2023/11/12 00:01:50;;;;;;;8.17;7.40;;;7.80;99.90;;;;;;5036664;28;20513;-73
2023/11/12 00:04:19;;;;;;;8.77;7.87;;;7.80;99.90;;;;;;5035494;28;20508;-74
2023/11/12 00:06:49;;;;;;;10.77;8.63;;;7.80;99.90;;;;;;5036629;28;20435;-73
2023/11/12 00:09:17;;;;;;;9.07;8.20;;;7.80;99.90;;;;;;5036324;28;20512;-74
2023/11/12 00:11:45;;;;;;;8.73;7.93;;;7.80;99.90;;;;;;5036530;28;20504;-74
2023/11/12 00:14:14;;;;;;;8.73;8.00;;;7.80;99.90;;;;;;5036083;28;20471;-74
2023/11/12 00:16:43;;;;;;;8.40;7.60;;;7.80;99.90;;;;;;5036789;28;20476;-73
2023/11/12 00:19:11;;;;;;;9.27;8.37;;;7.80;99.90;;;;;;5035984;28;20450;-74
2023/11/12 00:21:39;;;;;;;7.37;6.70;;;7.80;99.90;;;;;;5034961;28;20455;-73
2023/11/12 00:24:11;;;;;;;9.07;8.30;;;7.80;99.90;;;;;;5036009;28;20462;-74
2023/11/12 00:26:39;;;;;;;8.63;7.80;;;7.80;99.90;;;;;;5034838;28;20432;-73
2023/11/12 00:29:07;;;;;;;9.43;8.43;;;7.80;99.90;;;;;;5036634;28;20525;-73
2023/11/12 00:31:35;;;;;;;9.20;8.40;;;7.80;99.90;;;;;;5034681;28;21066;-73
2023/11/12 00:34:04;;;;;;;9.43;8.67;;;7.80;99.90;;;;;;5036124;28;21019;-73
2023/11/12 00:36:32;;;;;;;9.83;8.93;;;7.80;99.90;;;;;;5035883;28;20442;-74
2023/11/12 00:39:00;;;;;;;9.67;8.87;;;7.80;99.90;;;;;;5034471;28;20477;-74
2023/11/12 00:41:29;;;;;;;12.90;10.00;;;7.70;99.90;;;;;;5035416;28;20564;-73
2023/11/12 00:43:57;;;;;;;12.27;9.40;;;7.80;99.90;;;;;;5035395;28;20427;-74
2023/11/12 00:46:26;;;;;;;12.07;10.97;;;7.70;99.90;;;;;;5034345;28;20459;-74
2023/11/12 00:48:56;;;;;;;11.60;10.60;;;7.70;99.90;;;;;;5035586;28;20441;-73
2023/11/12 00:51:24;;;;;;;11.90;10.90;;;7.80;99.90;;;;;;5035608;28;20507;-73
2023/11/12 00:53:52;;;;;;;13.07;11.87;;;7.70;99.90;;;;;;5034464;28;20824;-73
2023/11/12 00:56:20;;;;;;;13.80;12.60;;;7.60;99.90;;;;;;5035667;28;20466;-73
2023/11/12 00:58:50;;;;;;;14.13;12.67;;;7.60;99.90;;;;;;5035775;28;20481;-73
2023/11/12 01:01:18;;;;;;;15.00;13.60;;;7.60;99.90;;;;;;5034185;28;20467;-73
2023/11/12 01:03:46;;;;;;;15.80;14.43;;;7.60;99.90;;;;;;5034667;28;20553;-74
2023/11/12 01:06:15;;;;;;;16.30;14.90;;;7.60;99.90;;;;;;5035463;28;20437;-74
2023/11/12 01:08:43;;;;;;;15.67;14.27;;;7.50;99.90;;;;;;5035373;28;20542;-73
2023/11/12 01:11:11;;;;;;;15.70;14.30;;;7.50;99.90;;;;;;5035229;28;20461;-74
2023/11/12 01:13:39;;;;;;;18.33;16.73;;;7.50;99.90;;;;;;5035218;28;20444;-73
2023/11/12 01:16:09;;;;;;;18.33;16.73;;;7.50;99.90;;;;;;5033728;28;20470;-73
2023/11/12 01:18:40;;;;;;;19.63;17.63;;;7.40;99.90;;;;;;5033555;28;20469;-73
2023/11/12 01:21:09;;;;;;;19.97;17.60;;;7.40;99.90;;;;;;5035166;28;20953;-73
2023/11/12 01:23:37;;;;;;;19.53;17.73;;;7.40;99.90;;;;;;5033427;28;20499;-74
2023/11/12 01:26:05;;;;;;;19.73;17.83;;;7.40;99.90;;;;;;5033443;28;20446;-74
2023/11/12 01:28:34;;;;;;;20.80;18.93;;;7.40;99.90;;;;;;5034651;28;20595;-73
2023/11/12 01:31:02;;;;;;;17.50;15.60;;;7.40;99.90;;;;;;5034553;28;20461;-74
2023/11/12 01:33:32;;;;;;;22.17;19.90;;;7.40;99.90;;;;;;5034671;28;20442;-74
2023/11/12 01:36:00;;;;;;;21.77;19.87;;;7.40;99.90;;;;;;5033225;28;20788;-74
2023/11/12 01:38:30;;;;;;;23.00;20.80;;;7.30;99.90;;;;;;5033197;28;20486;-74
2023/11/12 01:41:02;;;;;;;23.83;21.73;;;7.30;99.90;;;;;;5033114;28;20577;-74
2023/11/12 01:43:31;;;;;;;25.00;22.50;;;7.30;99.90;;;;;;5033178;28;20443;-74
2023/11/12 01:46:01;;;;;;;24.63;22.33;;;7.30;99.90;;;;;;5033115;28;20983;-74
2023/11/12 01:48:33;;;;;;;26.00;23.50;;;7.30;99.90;;;;;;5033085;28;20523;-74
2023/11/12 01:51:04;;;;;;;25.80;23.50;;;7.30;99.90;;;;;;5034194;28;20459;-74
2023/11/12 01:53:35;;;;;;;26.07;22.90;;;7.30;99.90;;;;;;5034526;28;20523;-74
2023/11/12 01:56:08;;;;;;;25.90;23.47;;;7.30;99.90;;;;;;5032867;28;20447;-74
2023/11/12 01:58:38;;;;;;;27.43;24.53;;;7.30;99.90;;;;;;5034119;28;20513;-74
2023/11/12 02:01:06;;;;;;;25.90;23.57;;;7.30;99.90;;;;;;5032690;28;20469;-73
2023/11/12 02:03:37;;;;;;;26.00;23.50;;;7.30;99.90;;;;;;5032865;28;20500;-74
2023/11/12 02:06:06;;;;;;;26.00;23.50;;;7.20;99.90;;;;;;5032838;28;20517;-74
2023/11/12 02:08:36;;;;;;;27.50;24.93;;;7.20;99.90;;;;;;5032693;28;20451;-74
2023/11/12 02:11:07;;;;;;;26.87;24.37;;;7.20;99.90;;;;;;5032634;28;20467;-74
2023/11/12 02:13:36;;;;;;;25.30;22.90;;;7.20;99.90;;;;;;5032615;28;20805;-74
2023/11/12 02:16:06;;;;;;;27.63;24.50;;;7.20;99.90;;;;;;5032550;28;20449;-74
2023/11/12 02:18:36;;;;;;;27.50;24.70;;;7.20;99.90;;;;;;5033486;28;20461;-74
2023/11/12 02:21:05;;;;;;;28.87;25.90;;;7.20;99.90;;;;;;5032420;28;20467;-74
2023/11/12 02:23:39;;;;;;;29.80;27.20;;;7.20;99.90;;;;;;5032441;28;20476;-73
2023/11/12 02:26:08;;;;;;;28.97;26.10;;;7.20;99.90;;;;;;5032593;28;20951;-74
2023/11/12 02:28:36;;;;;;;27.83;25.13;;;7.20;99.90;;;;;;5032370;28;20452;-71
2023/11/12 02:31:04;;;;;;;31.00;26.67;;;7.20;99.90;;;;;;5032199;28;21061;-72
2023/11/12 02:33:33;;;;;;;29.20;26.40;;;7.20;99.90;;;;;;5032160;28;21010;-72
2023/11/12 02:36:03;;;;;;;31.37;28.43;;;7.20;99.90;;;;;;5032487;28;20521;-72
2023/11/12 02:38:31;;;;;;;29.43;26.70;;;7.20;99.90;;;;;;5032114;28;20494;-72
2023/11/12 02:41:02;;;;;;;30.53;27.30;;;7.20;99.90;;;;;;5033507;28;20457;-72
2023/11/12 02:43:30;;;;;;;31.37;28.33;;;7.20;99.90;;;;;;5032060;28;20500;-72
2023/11/12 02:45:58;;;;;;;30.87;27.87;;;7.20;99.90;;;;;;5032415;28;20481;-72
2023/11/12 02:48:35;;;;;;;31.27;28.47;;;7.20;99.90;;;;;;5031966;28;20643;-72
2023/11/12 02:51:05;;;;;;;31.20;28.13;;;7.20;99.90;;;;;;5032160;28;20845;-72
2023/11/12 02:53:33;;;;;;;31.63;28.53;;;7.20;99.90;;;;;;5031885;28;20486;-72
2023/11/12 02:56:04;;;;;;;31.20;28.00;;;7.10;99.90;;;;;;5031916;28;20462;-72
2023/11/12 02:58:32;;;;;;;32.73;29.37;;;7.10;99.90;;;;;;5031858;28;20459;-72
2023/11/12 03:01:01;;;;;;;32.10;29.00;;;7.10;99.90;;;;;;5031776;28;20463;-72
2023/11/12 03:03:29;;;;;;;29.43;26.37;;;7.10;99.90;;;;;;5031865;28;20450;-72
2023/11/12 03:05:58;;;;;;;30.00;27.00;;;7.10;99.90;;;;;;5033055;28;20427;-73
2023/11/12 03:08:26;;;;;;;30.73;27.97;;;7.10;99.90;;;;;;5035279;28;20491;-72
2023/11/12 03:10:55;;;;;;;31.70;28.57;;;7.10;99.90;;;;;;5035800;28;20475;-73
2023/11/12 03:13:25;;;;;;;31.40;28.50;;;7.10;99.90;;;;;;5035840;28;20496;-72
2023/11/12 03:15:53;;;;;;;30.20;26.90;;;7.10;99.90;;;;;;5037081;28;20444;-73
2023/11/12 03:18:22;;;;;;;30.50;27.50;;;7.10;99.90;;;;;;5035662;28;20560;-72
2023/11/12 03:20:50;;;;;;;31.10;28.00;;;7.10;99.90;;;;;;5035480;28;20477;-72
2023/11/12 03:23:18;;;;;;;31.60;28.23;;;7.00;99.90;;;;;;5036943;28;20875;-72
2023/11/12 03:25:46;;;;;;;31.00;27.90;;;7.00;99.90;;;;;;5035827;28;20456;-72
2023/11/12 03:28:14;;;;;;;32.07;28.83;;;7.00;99.90;;;;;;5035622;28;20816;-73
2023/11/12 03:30:44;;;;;;;36.47;32.77;;;7.00;99.90;;;;;;5035740;28;20896;-73
2023/11/12 03:33:12;;;;;;;35.37;31.73;;;7.00;99.90;;;;;;5035466;28;20457;-72
2023/11/12 03:35:41;;;;;;;31.13;27.80;;;7.00;99.90;;;;;;5036805;28;20428;-73
2023/11/12 03:38:09;;;;;;;32.13;28.40;;;7.00;99.90;;;;;;5035334;28;20505;-72
2023/11/12 03:40:37;;;;;;;35.70;30.03;;;7.00;99.90;;;;;;5035290;28;20556;-73
2023/11/12 03:43:05;;;;;;;33.53;30.00;;;7.00;99.90;;;;;;5035318;28;20444;-73
2023/11/12 03:45:33;;;;;;;32.10;28.70;;;6.90;99.90;;;;;;5036506;28;20809;-73
2023/11/12 03:48:03;;;;;;;35.63;31.93;;;6.90;99.90;;;;;;5035174;28;20449;-73
2023/11/12 03:50:31;;;;;;;36.33;32.67;;;6.90;99.90;;;;;;5036659;28;20541;-73
2023/11/12 03:52:59;;;;;;;35.33;31.83;;;7.00;99.90;;;;;;5035122;28;20555;-73
2023/11/12 03:55:28;;;;;;;35.07;31.57;;;6.90;99.90;;;;;;5034994;28;20818;-73
2023/11/12 03:57:56;;;;;;;33.83;29.93;;;6.90;99.90;;;;;;5036285;28;20436;-73
2023/11/12 04:00:24;;;;;;;31.77;27.53;;;6.90;99.90;;;;;;5034806;28;20482;-73
2023/11/12 04:02:53;;;;;;;37.00;33.30;;;6.90;99.90;;;;;;5034890;28;20443;-73
2023/11/12 04:05:22;;;;;;;33.70;30.03;;;6.90;99.90;;;;;;5036204;28;20827;-73
2023/11/12 04:07:51;;;;;;;36.83;33.10;;;6.90;99.90;;;;;;5034847;28;20452;-73
2023/11/12 04:10:20;;;;;;;32.87;29.40;;;6.90;99.90;;;;;;5036071;28;20446;-73
2023/11/12 04:12:48;;;;;;;32.87;29.33;;;6.90;99.90;;;;;;5034762;28;20961;-73
2023/11/12 04:15:16;;;;;;;37.03;33.13;;;6.80;99.90;;;;;;5036337;28;20497;-73
2023/11/12 04:17:45;;;;;;;35.37;31.77;;;6.80;99.90;;;;;;5036065;28;20447;-73
2023/11/12 04:20:14;;;;;;;34.37;30.53;;;6.80;99.90;;;;;;5033186;28;20576;-73
2023/11/12 04:22:45;;;;;;;38.30;34.30;;;6.80;99.90;;;;;;5034646;28;20445;-73
2023/11/12 04:25:13;;;;;;;37.90;34.07;;;6.80;99.90;;;;;;5035891;28;20441;-73
2023/11/12 04:27:41;;;;;;;36.60;30.63;;;6.80;99.90;;;;;;5035852;28;20441;-73
2023/11/12 04:30:10;;;;;;;38.13;34.00;;;6.80;99.90;;;;;;5034449;28;20564;-73
2023/11/12 04:32:38;;;;;;;49.67;35.10;;;6.80;99.90;;;;;;5034470;28;20442;-73
2023/11/12 04:35:08;;;;;;;42.30;33.57;;;6.80;99.90;;;;;;5035704;28;20802;-73
2023/11/12 04:37:36;;;;;;;42.70;35.60;;;6.70;99.90;;;;;;5034449;28;20935;-73
2023/11/12 04:40:09;;;;;;;37.10;30.33;;;6.70;99.90;;;;;;5034234;28;20493;-72
2023/11/12 04:42:37;;;;;;;38.00;32.60;;;6.70;99.90;;;;;;5035623;28;20425;-73
2023/11/12 04:45:06;;;;;;;41.70;35.40;;;6.70;99.90;;;;;;5035528;28;20435;-73
2023/11/12 04:47:35;;;;;;;40.00;33.63;;;6.70;99.90;;;;;;5035819;28;20507;-73
2023/11/12 04:50:04;;;;;;;38.07;32.30;;;6.70;99.90;;;;;;5034051;28;20457;-73
2023/11/12 04:52:32;;;;;;;43.10;34.17;;;6.70;99.90;;;;;;5035395;28;20449;-73
2023/11/12 04:55:00;;;;;;;43.73;31.60;;;6.70;99.90;;;;;;5034114;28;20457;-73
2023/11/12 04:57:30;;;;;;;40.23;32.60;;;6.70;99.90;;;;;;5035516;28;20440;-73
2023/11/12 04:59:58;;;;;;;42.47;37.87;;;6.70;99.90;;;;;;5033786;28;20488;-73
2023/11/12 05:02:26;;;;;;;45.10;37.13;;;6.70;99.90;;;;;;5035223;28;20429;-73
2023/11/12 05:04:54;;;;;;;41.67;33.23;;;6.60;99.90;;;;;;5035456;28;20448;-73
2023/11/12 05:07:22;;;;;;;46.17;37.03;;;6.60;99.90;;;;;;5035213;28;20524;-73
2023/11/12 05:09:50;;;;;;;43.33;33.83;;;6.70;99.90;;;;;;5034927;28;20526;-73
2023/11/12 05:12:20;;;;;;;44.43;33.83;;;6.70;99.90;;;;;;5033830;28;20473;-73
2023/11/12 05:14:50;;;;;;;44.00;35.37;;;6.70;99.90;;;;;;5035036;28;20453;-73
2023/11/12 05:17:18;;;;;;;47.77;37.30;;;6.70;99.90;;;;;;5034960;28;20817;-73
2023/11/12 05:19:46;;;;;;;46.67;38.60;;;6.60;99.90;;;;;;5034530;28;20513;-73
2023/11/12 05:22:14;;;;;;;47.53;35.70;;;6.60;99.90;;;;;;5035292;28;20436;-73
2023/11/12 05:24:43;;;;;;;46.80;39.20;;;6.60;99.90;;;;;;5035075;28;20778;-73
2023/11/12 05:27:11;;;;;;;42.37;33.47;;;6.60;99.90;;;;;;5033449;28;20438;-73
2023/11/12 05:29:41;;;;;;;46.73;37.10;;;6.60;99.90;;;;;;5035242;28;20804;-73
2023/11/12 05:32:10;;;;;;;41.60;36.93;;;6.60;99.90;;;;;;5034509;28;20447;-73
2023/11/12 05:34:39;;;;;;;47.53;35.77;;;6.70;99.90;;;;;;5034607;28;20529;-73
2023/11/12 05:37:07;;;;;;;43.63;36.27;;;6.70;99.90;;;;;;5034586;28;20811;-73
2023/11/12 05:39:36;;;;;;;47.37;37.03;;;6.70;99.90;;;;;;5033053;28;20511;-73
2023/11/12 05:42:05;;;;;;;45.60;36.30;;;6.70;99.90;;;;;;5033094;28;20820;-73
2023/11/12 05:44:33;;;;;;;44.10;36.57;;;6.70;99.90;;;;;;5034378;28;20463;-73
2023/11/12 05:47:01;;;;;;;41.00;34.60;;;6.70;99.90;;;;;;5034376;28;20491;-73
2023/11/12 05:49:31;;;;;;;46.90;36.03;;;6.70;99.90;;;;;;5032943;28;20440;-73
2023/11/12 05:51:59;;;;;;;39.90;32.47;;;6.70;99.90;;;;;;5033020;28;20446;-73
2023/11/12 05:54:27;;;;;;;42.40;34.37;;;6.70;99.90;;;;;;5034237;28;20549;-73
2023/11/12 05:56:56;;;;;;;39.30;32.80;;;6.70;99.90;;;;;;5034120;28;20457;-73
2023/11/12 05:59:24;;;;;;;38.17;34.03;;;6.70;99.90;;;;;;5034068;28;20458;-73
2023/11/12 06:01:52;;;;;;;36.80;30.40;;;6.70;99.90;;;;;;5034047;28;20540;-73
2023/11/12 06:04:21;;;;;;;37.70;33.13;;;6.70;99.90;;;;;;5034118;28;20484;-73
2023/11/12 06:06:50;;;;;;;37.43;31.20;;;6.70;99.90;;;;;;5033982;28;20433;-73
2023/11/12 06:09:19;;;;;;;37.67;32.97;;;6.70;99.90;;;;;;5033847;28;20848;-73
2023/11/12 06:11:47;;;;;;;36.83;31.30;;;6.70;99.90;;;;;;5034206;28;20438;-73
2023/11/12 06:14:15;;;;;;;38.73;31.37;;;6.60;99.90;;;;;;5032634;28;20541;-73
2023/11/12 06:16:43;;;;;;;38.17;34.00;;;6.60;99.90;;;;;;5033847;28;20441;-73
2023/11/12 06:19:12;;;;;;;38.03;30.70;;;6.60;99.90;;;;;;5032463;28;20455;-73
2023/11/12 06:21:40;;;;;;;36.13;30.10;;;6.60;99.90;;;;;;5033647;28;20468;-73
2023/11/12 06:24:10;;;;;;;42.20;34.63;;;6.60;99.90;;;;;;5033758;28;20432;-73
2023/11/12 06:26:38;;;;;;;40.00;32.70;;;6.50;99.90;;;;;;5032994;28;20438;-73
2023/11/12 06:29:06;;;;;;;41.53;30.93;;;6.50;99.90;;;;;;5033880;28;20439;-73
2023/11/12 06:31:35;;;;;;;47.30;35.37;;;6.50;99.90;;;;;;5032312;28;20467;-73
2023/11/12 06:34:03;;;;;;;39.43;30.93;;;6.50;99.90;;;;;;5032377;28;20475;-73
2023/11/12 06:36:31;;;;;;;42.50;31.87;;;6.50;99.90;;;;;;5032298;28;20460;-74
2023/11/12 06:38:59;;;;;;;39.20;32.40;;;6.50;99.90;;;;;;5033851;28;20444;-74
2023/11/12 06:41:29;;;;;;;38.37;34.20;;;6.50;99.90;;;;;;5033424;28;20573;-73
2023/11/12 06:43:57;;;;;;;41.60;29.63;;;6.50;99.90;;;;;;5031457;28;20473;-73
2023/11/12 06:46:25;;;;;;;41.40;30.93;;;6.50;99.90;;;;;;5033339;28;20435;-73
2023/11/12 06:48:53;;;;;;;33.67;28.67;;;6.40;99.90;;;;;;5033354;28;20949;-73
2023/11/12 06:51:22;;;;;;;37.03;30.73;;;6.40;99.90;;;;;;5033805;28;20452;-73
2023/11/12 06:53:50;;;;;;;36.93;30.57;;;6.40;99.90;;;;;;5033578;28;20463;-73
2023/11/12 06:56:19;;;;;;;40.07;30.40;;;6.40;99.90;;;;;;5033283;28;20536;-73
2023/11/12 06:58:48;;;;;;;35.43;27.77;;;6.40;99.90;;;;;;5031960;28;20476;-73
2023/11/12 07:01:16;;;;;;;37.47;30.03;;;6.40;99.90;;;;;;5033162;28;20499;-73
2023/11/12 07:03:44;;;;;;;36.23;30.23;;;6.40;99.90;;;;;;5033199;28;20518;-73
2023/11/12 07:06:13;;;;;;;36.53;32.63;;;6.40;99.90;;;;;;5031889;28;20454;-73
2023/11/12 07:08:42;;;;;;;37.87;28.20;;;6.40;99.90;;;;;;5033428;28;20443;-73
2023/11/12 07:11:10;;;;;;;35.03;29.80;;;6.40;99.90;;;;;;5033144;28;20563;-73
2023/11/12 07:13:38;;;;;;;37.10;30.93;;;6.40;99.90;;;;;;5033232;28;20434;-73
2023/11/12 07:16:16;;;;;;;35.50;28.77;;;6.40;99.90;;;;;;5031900;28;20540;-73
2023/11/12 07:18:44;;;;;;;36.60;30.53;;;6.40;99.90;;;;;;5033224;28;20417;-73
2023/11/12 07:21:25;;;;;;;37.97;31.80;;;6.40;99.90;;;;;;5032969;28;20472;-73
2023/11/12 07:23:54;;;;;;;38.07;31.13;;;6.50;99.90;;;;;;5033036;28;20450;-73
2023/11/12 07:26:24;;;;;;;41.13;35.70;;;6.50;99.90;;;;;;5033005;28;21017;-73
2023/11/12 07:28:52;;;;;;;38.10;29.50;;;6.50;99.90;;;;;;5031831;28;20451;-74
2023/11/12 07:31:23;;;;;;;41.00;32.37;;;6.50;99.90;;;;;;5032863;28;20834;-73
2023/11/12 07:33:52;;;;;;;38.57;32.10;;;6.50;99.90;;;;;;5033265;28;20902;-73
2023/11/12 07:36:21;;;;;;;39.83;33.70;;;6.60;99.90;;;;;;5032986;28;20464;-73
2023/11/12 07:38:50;;;;;;;40.17;34.40;;;6.60;99.90;;;;;;5031666;28;20453;-74
2023/11/12 07:41:19;;;;;;;42.60;33.23;;;6.60;99.90;;;;;;5032673;28;20474;-73
2023/11/12 07:43:47;;;;;;;43.63;33.67;;;6.60;99.90;;;;;;5032808;28;20779;-74
2023/11/12 07:46:15;;;;;;;42.80;35.20;;;6.70;99.90;;;;;;5031574;28;20456;-74
2023/11/12 07:48:46;;;;;;;41.80;34.70;;;6.70;99.90;;;;;;5032828;28;20911;-73
2023/11/12 07:51:14;;;;;;;42.00;37.07;;;6.70;99.90;;;;;;5032768;28;20839;-73
2023/11/12 07:53:42;;;;;;;41.90;36.83;;;6.70;99.90;;;;;;5033673;28;20442;-74
2023/11/12 07:56:10;;;;;;;43.00;38.30;;;6.80;99.90;;;;;;5035180;28;20445;-73
2023/11/12 07:58:39;;;;;;;40.77;32.90;;;6.80;99.90;;;;;;5036602;28;20447;-74
2023/11/12 08:01:07;;;;;;;41.60;33.53;;;6.80;99.90;;;;;;5037090;28;20473;-73
2023/11/12 08:03:35;;;;;;;52.33;36.87;;;6.80;99.90;;;;;;5035114;28;20542;-73
2023/11/12 08:06:05;;;;;;;42.20;35.20;;;6.90;99.90;;;;;;5036226;28;20500;-74
2023/11/12 08:08:33;;;;;;;41.70;36.37;;;6.90;99.90;;;;;;5034952;28;20545;-74
2023/11/12 08:11:02;;;;;;;40.30;35.77;;;6.90;99.90;;;;;;5036811;28;20498;-74
2023/11/12 08:13:30;;;;;;;40.80;36.20;;;6.90;99.90;;;;;;5034946;28;20466;-73
2023/11/12 08:15:58;;;;;;;36.60;32.07;;;6.90;99.90;;;;;;5036382;28;20520;-74
2023/11/12 08:18:26;;;;;;;43.83;36.43;;;7.00;99.90;;;;;;5036470;28;20438;-74
2023/11/12 08:20:56;;;;;;;41.33;35.83;;;7.00;99.90;;;;;;5036569;28;20939;-73
2023/11/12 08:23:26;;;;;;;39.43;33.20;;;7.00;99.90;;;;;;5035972;28;20418;-70
2023/11/12 08:25:54;;;;;;;39.20;35.20;;;7.00;99.90;;;;;;5035823;28;20850;-73
2023/11/12 08:28:24;;;;;;;43.33;35.50;;;7.00;99.90;;;;;;5035855;28;20457;-73
2023/11/12 08:30:52;;;;;;;31.30;28.00;;;7.10;99.90;;;;;;5036496;28;20469;-73
2023/11/12 08:33:20;;;;;;;42.00;34.23;;;7.10;99.90;;;;;;5035683;28;20442;-73
2023/11/12 08:35:48;;;;;;;37.30;33.30;;;7.10;99.90;;;;;;5034317;28;20856;-74
2023/11/12 08:38:16;;;;;;;39.50;35.33;;;7.10;99.90;;;;;;5036008;28;20978;-73
2023/11/12 08:40:46;;;;;;;38.50;34.53;;;7.10;99.90;;;;;;5035449;28;20549;-73
2023/11/12 08:43:15;;;;;;;38.43;34.30;;;7.20;99.90;;;;;;5035524;28;20842;-73
2023/11/12 08:45:43;;;;;;;38.73;34.63;;;7.20;99.90;;;;;;5035521;28;20451;-74
2023/11/12 08:48:11;;;;;;;37.93;34.13;;;7.20;99.90;;;;;;5034260;28;20447;-73
2023/11/12 08:50:39;;;;;;;39.10;35.03;;;7.20;99.90;;;;;;5035831;28;20466;-74
2023/11/12 08:53:08;;;;;;;39.60;35.50;;;7.30;99.90;;;;;;5035525;28;21019;-73
2023/11/12 08:55:36;;;;;;;40.90;36.90;;;7.20;99.90;;;;;;5035719;28;20532;-74
2023/11/12 08:58:05;;;;;;;42.07;37.63;;;7.30;99.90;;;;;;5035335;28;20442;-74
2023/11/12 09:00:33;;;;;;;39.77;35.70;;;7.30;99.90;;;;;;5035334;28;20556;-74
2023/11/12 09:03:05;;;;;;;42.37;38.20;;;7.40;99.90;;;;;;5035769;28;20473;-73
2023/11/12 09:05:36;;;;;;;43.63;39.10;;;7.40;99.90;;;;;;5033968;28;20454;-73
2023/11/12 09:08:06;;;;;;;42.77;38.47;;;7.40;99.90;;;;;;5034802;28;20477;-74
2023/11/12 09:10:34;;;;;;;43.00;38.73;;;7.50;99.90;;;;;;5033969;28;20480;-74
2023/11/12 09:13:03;;;;;;;44.97;40.47;;;7.50;99.90;;;;;;5035230;28;20487;-74
2023/11/12 09:15:32;;;;;;;42.80;38.63;;;7.50;99.90;;;;;;5034906;28;20448;-74
2023/11/12 09:18:01;;;;;;;48.80;43.70;;;7.50;99.90;;;;;;5034873;28;20532;-74
2023/11/12 09:20:29;;;;;;;45.17;40.60;;;7.50;99.90;;;;;;5033473;28;20467;-74
2023/11/12 09:22:57;;;;;;;45.97;41.33;;;7.60;99.90;;;;;;5034710;28;20471;-73
2023/11/12 09:25:25;;;;;;;49.40;44.40;;;7.60;99.90;;;;;;5034063;28;20469;-74
2023/11/12 09:27:54;;;;;;;48.57;43.67;;;7.60;99.90;;;;;;5034729;28;20536;-74
2023/11/12 09:30:23;;;;;;;47.43;42.53;;;7.70;99.90;;;;;;5034906;28;20811;-74
2023/11/12 09:32:53;;;;;;;46.30;41.67;;;7.70;99.90;;;;;;5034568;28;20438;-74
2023/11/12 09:35:21;;;;;;;48.40;43.40;;;7.70;99.90;;;;;;5034614;28;20437;-74
2023/11/12 09:37:50;;;;;;;47.43;42.87;;;7.70;99.90;;;;;;5034429;28;20437;-74
2023/11/12 09:40:18;;;;;;;46.93;42.43;;;7.80;99.90;;;;;;5033165;28;20511;-74
2023/11/12 09:42:52;;;;;;;46.13;41.43;;;7.80;99.90;;;;;;5033039;28;20467;-74
2023/11/12 09:45:20;;;;;;;45.30;40.80;;;7.80;99.90;;;;;;5034399;28;20433;-74
2023/11/12 09:47:58;;;;;;;43.37;38.97;;;7.80;99.90;;;;;;5034332;28;20457;-74
2023/11/12 09:50:26;;;;;;;45.90;41.13;;;7.90;99.90;;;;;;5033066;28;20496;-74
2023/11/12 09:52:55;;;;;;;45.00;40.40;;;7.90;99.90;;;;;;5032961;28;20542;-74
2023/11/12 09:55:24;;;;;;;45.10;40.30;;;7.90;99.90;;;;;;5033004;28;20450;-74
2023/11/12 09:57:52;;;;;;;41.67;37.47;;;8.00;99.90;;;;;;5034125;28;20804;-74
2023/11/12 10:00:21;;;;;;;42.97;38.87;;;8.00;99.90;;;;;;5034018;28;20486;-74
2023/11/12 10:02:50;;;;;;;42.80;38.50;;;8.00;99.90;;;;;;5033964;28;20556;-74
2023/11/12 10:05:20;;;;;;;41.80;37.87;;;8.10;99.90;;;;;;5032750;28;20466;-74
2023/11/12 10:07:49;;;;;;;43.97;39.47;;;8.10;99.90;;;;;;5034245;28;20805;-74
2023/11/12 10:10:25;;;;;;;39.30;35.70;;;8.20;99.90;;;;;;5033797;28;20483;-74
2023/11/12 10:12:54;;;;;;;39.43;35.87;;;8.20;99.90;;;;;;5034458;28;20430;-74
2023/11/12 10:15:24;;;;;;;39.30;35.60;;;8.20;99.90;;;;;;5032630;28;20489;-74
2023/11/12 10:17:52;;;;;;;37.17;33.57;;;8.30;99.90;;;;;;5032486;28;20450;-74
2023/11/12 10:20:26;;;;;;;35.30;32.00;;;8.30;99.90;;;;;;5032420;28;20474;-74
2023/11/12 10:22:55;;;;;;;33.90;30.77;;;8.30;99.90;;;;;;5034514;28;20459;-74
2023/11/12 10:25:40;;;;;;;35.33;32.00;;;8.40;99.90;;;;;;5032377;28;20445;-74
2023/11/12 10:28:09;;;;;;;33.07;30.10;;;8.40;99.90;;;;;;5032503;28;20432;-74
2023/11/12 10:30:38;;;;;;;35.33;32.03;;;8.40;99.90;;;;;;5033585;28;20872;-74
2023/11/12 10:33:17;;;;;;;32.03;29.10;;;8.50;99.90;;;;;;5032247;28;20561;-74
2023/11/12 10:35:47;;;;;;;34.73;31.67;;;8.40;99.90;;;;;;5033537;28;20446;-74
2023/11/12 10:38:17;;;;;;;33.30;30.30;;;8.40;99.90;;;;;;5033553;28;20977;-74
2023/11/12 10:41:07;;;;;;;33.00;30.00;;;8.40;99.90;;;;;;5033394;28;20554;-74
2023/11/12 10:43:36;;;;;;;31.50;28.60;;;8.40;99.90;;;;;;5029590;28;20524;-74
2023/11/12 10:46:06;;;;;;;33.00;30.00;;;8.40;99.90;;;;;;5033396;28;20434;-74
2023/11/12 10:48:36;;;;;;;33.00;30.00;;;8.30;99.90;;;;;;5032233;28;20967;-75
2023/11/12 10:51:08;;;;;;;34.30;31.00;;;8.30;99.90;;;;;;5033252;28;20466;-75
2023/11/12 10:53:38;;;;;;;34.53;31.43;;;8.30;99.90;;;;;;5033378;28;20455;-75
2023/11/12 10:56:07;;;;;;;33.83;30.63;;;8.30;99.90;;;;;;5033162;28;20462;-74
2023/11/12 10:58:35;;;;;;;31.70;28.80;;;8.40;99.90;;;;;;5031986;28;20461;-73
2023/11/12 11:01:06;;;;;;;33.37;30.27;;;8.40;99.90;;;;;;5031974;28;20466;-73
2023/11/12 11:03:35;;;;;;;33.13;30.03;;;8.40;99.90;;;;;;5033478;28;20455;-75
2023/11/12 11:06:06;;;;;;;33.93;30.73;;;8.40;99.90;;;;;;5031871;28;20447;-74
2023/11/12 11:08:36;;;;;;;33.13;30.03;;;8.40;99.90;;;;;;5031962;28;20482;-74
2023/11/12 11:11:07;;;;;;;32.63;29.67;;;8.40;99.90;;;;;;5033027;28;20461;-74
2023/11/12 11:13:39;;;;;;;32.77;29.77;;;8.50;99.90;;;;;;5033126;28;20427;-74
2023/11/12 11:16:08;;;;;;;34.50;30.90;;;8.50;99.90;;;;;;5031718;28;20442;-74
2023/11/12 11:18:53;;;;;;;32.40;29.50;;;8.50;99.90;;;;;;5032933;28;20443;-74
2023/11/12 11:21:21;;;;;;;32.40;29.40;;;8.60;99.90;;;;;;5031786;28;20657;-74
2023/11/12 11:23:55;;;;;;;32.07;28.97;;;8.60;99.90;;;;;;5032957;28;20984;-74
2023/11/12 11:26:32;;;;;;;30.37;27.53;;;8.60;99.90;;;;;;5033416;28;20422;-73
2023/11/12 11:29:17;;;;;;;31.67;28.87;;;8.70;99.90;;;;;;5033044;28;20462;-73
2023/11/12 11:32:17;;;;;;;30.90;28.20;;;8.70;99.90;;;;;;5035696;28;20541;-76
2023/11/12 11:34:47;;;;;;;31.70;28.80;;;8.70;99.90;;;;;;5035669;28;20820;-75
2023/11/12 11:37:17;;;;;;;32.13;29.27;;;8.70;99.90;;;;;;5035594;28;20455;-73
2023/11/12 11:39:47;;;;;;;30.90;28.00;;;8.70;99.90;;;;;;5036781;28;20796;-74
2023/11/12 11:42:16;;;;;;;31.67;28.73;;;8.70;99.90;;;;;;5037094;28;20496;-75
2023/11/12 11:44:46;;;;;;;30.97;28.27;;;8.70;99.90;;;;;;5035374;28;20470;-74
2023/11/12 11:47:16;;;;;;;29.73;27.03;;;8.80;99.90;;;;;;5035547;28;20443;-74
2023/11/12 11:49:46;;;;;;;30.13;27.33;;;8.80;99.90;;;;;;5036922;28;20992;-74
2023/11/12 11:52:20;;;;;;;29.10;26.50;;;8.80;99.90;;;;;;5037239;28;20445;-73
2023/11/12 11:54:56;;;;;;;28.77;26.27;;;8.90;99.90;;;;;;5037020;28;20481;-74
2023/11/12 11:57:26;;;;;;;27.97;25.40;;;8.90;99.90;;;;;;5035390;28;20462;-74
2023/11/12 11:59:56;;;;;;;28.80;26.10;;;8.90;99.90;;;;;;5035448;28;20501;-74
2023/11/12 12:02:24;;;;;;;30.87;27.83;;;8.90;99.90;;;;;;5036968;28;20439;-74
2023/11/12 12:04:57;;;;;;;29.93;25.60;;;8.90;99.90;;;;;;5035341;28;20469;-73
2023/11/12 12:07:27;;;;;;;29.30;26.77;;;8.90;99.90;;;;;;5037081;28;20916;-74
2023/11/12 12:09:57;;;;;;;28.93;26.23;;;8.90;99.90;;;;;;5036918;28;20486;-74
2023/11/12 12:12:28;;;;;;;30.13;27.43;;;9.00;99.90;;;;;;5036205;28;20510;-74
2023/11/12 12:14:57;;;;;;;28.70;26.00;;;9.00;99.90;;;;;;5036954;28;20470;-74
2023/11/12 12:17:25;;;;;;;28.13;25.47;;;9.00;99.90;;;;;;5035591;28;20554;-74
2023/11/12 12:19:53;;;;;;;30.00;27.20;;;9.00;99.90;;;;;;5036375;28;20474;-74
2023/11/12 12:22:22;;;;;;;30.70;27.50;;;9.10;99.90;;;;;;5035963;28;20526;-74
2023/11/12 12:24:57;;;;;;;28.93;26.13;;;9.10;99.90;;;;;;5037091;28;20460;-74
2023/11/12 12:27:26;;;;;;;29.47;26.83;;;9.10;99.90;;;;;;5035798;28;20896;-73
2023/11/12 12:29:55;;;;;;;29.40;26.70;;;9.10;99.90;;;;;;5035164;28;20475;-74
2023/11/12 12:32:24;;;;;;;28.23;25.77;;;9.10;99.90;;;;;;5035097;28;20825;-74
2023/11/12 12:34:56;;;;;;;28.07;25.60;;;9.10;99.90;;;;;;5036511;28;20435;-74
2023/11/12 12:37:29;;;;;;;28.57;25.70;;;9.20;99.90;;;;;;5035039;28;20854;-74
2023/11/12 12:40:01;;;;;;;27.00;24.50;;;9.10;99.90;;;;;;5035967;28;21033;-74
2023/11/12 12:42:31;;;;;;;27.07;24.57;;;9.20;99.90;;;;;;5035927;28;20473;-74
2023/11/12 12:44:59;;;;;;;25.97;23.57;;;9.20;99.90;;;;;;5034655;28;20474;-74
2023/11/12 12:47:33;;;;;;;25.37;22.97;;;9.20;99.90;;;;;;5034723;28;20529;-74
2023/11/12 12:50:25;;;;;;;23.20;21.10;;;9.30;99.90;;;;;;5034600;28;20470;-74